sensor_id;sensor_type;location;lat;lon;timestamp;pressure;altitude;pressure_sealevel;temperature;humidity
33286;BME280;19656;50.096;20.014;2024-02-21T00:03:04;99685.45;;;8.17;66.48
33286;BME280;19656;50.096;20.014;2024-02-21T00:08:08;99684.80;;;8.12;66.26
33286;BME280;19656;50.096;20.014;2024-02-21T00:13:11;99685.22;;;8.10;66.24
33286;BME280;19656;50.096;20.014;2024-02-21T00:18:15;99683.16;;;8.09;65.98
33286;BME280;19656;50.096;20.014;2024-02-21T00:23:18;99685.02;;;8.02;65.86
33286;BME280;19656;50.096;20.014;2024-02-21T00:28:21;99685.17;;;8.02;65.75
33286;BME280;19656;50.096;20.014;2024-02-21T00:33:25;99682.74;;;8.10;65.56
33286;BME280;19656;50.096;20.014;2024-02-21T00:38:28;99685.23;;;8.14;65.37
33286;BME280;19656;50.096;20.014;2024-02-21T00:43:32;99675.38;;;8.13;65.28
33286;BME280;19656;50.096;20.014;2024-02-21T00:48:35;99678.52;;;8.10;65.38
33286;BME280;19656;50.096;20.014;2024-02-21T00:53:39;99666.45;;;8.02;65.77
33286;BME280;19656;50.096;20.014;2024-02-21T00:58:42;99662.83;;;8.00;66.21
33286;BME280;19656;50.096;20.014;2024-02-21T01:03:45;99660.33;;;7.92;66.70
33286;BME280;19656;50.096;20.014;2024-02-21T01:08:49;99657.01;;;7.87;67.16
33286;BME280;19656;50.096;20.014;2024-02-21T01:13:52;99658.89;;;7.85;67.59
33286;BME280;19656;50.096;20.014;2024-02-21T01:18:55;99656.70;;;7.82;68.02
33286;BME280;19656;50.096;20.014;2024-02-21T01:23:58;99654.91;;;7.78;68.27
33286;BME280;19656;50.096;20.014;2024-02-21T01:29:02;99651.80;;;7.72;68.51
33286;BME280;19656;50.096;20.014;2024-02-21T01:34:05;99645.22;;;7.69;68.88
33286;BME280;19656;50.096;20.014;2024-02-21T01:39:09;99636.77;;;7.68;69.01
33286;BME280;19656;50.096;20.014;2024-02-21T01:44:13;99627.85;;;7.70;68.99
33286;BME280;19656;50.096;20.014;2024-02-21T01:49:17;99624.56;;;7.73;69.08
33286;BME280;19656;50.096;20.014;2024-02-21T01:54:20;99621.94;;;7.76;69.06
33286;BME280;19656;50.096;20.014;2024-02-21T01:59:24;99621.67;;;7.78;68.99
33286;BME280;19656;50.096;20.014;2024-02-21T02:04:27;99620.86;;;7.77;69.24
33286;BME280;19656;50.096;20.014;2024-02-21T02:09:30;99621.06;;;7.76;69.43
33286;BME280;19656;50.096;20.014;2024-02-21T02:14:33;99615.12;;;7.70;69.71
33286;BME280;19656;50.096;20.014;2024-02-21T02:19:37;99613.59;;;7.69;70.00
33286;BME280;19656;50.096;20.014;2024-02-21T02:24:40;99607.58;;;7.61;70.15
33286;BME280;19656;50.096;20.014;2024-02-21T02:29:43;99612.52;;;7.56;70.44
33286;BME280;19656;50.096;20.014;2024-02-21T02:34:47;99604.52;;;7.49;70.73
33286;BME280;19656;50.096;20.014;2024-02-21T02:39:50;99601.66;;;7.50;70.83
33286;BME280;19656;50.096;20.014;2024-02-21T02:44:53;99599.65;;;7.51;70.89
33286;BME280;19656;50.096;20.014;2024-02-21T02:49:56;99595.03;;;7.52;71.02
33286;BME280;19656;50.096;20.014;2024-02-21T02:55:00;99604.96;;;7.51;70.85
33286;BME280;19656;50.096;20.014;2024-02-21T03:00:05;99598.86;;;7.49;70.93
33286;BME280;19656;50.096;20.014;2024-02-21T03:10:17;99592.81;;;7.50;70.99
33286;BME280;19656;50.096;20.014;2024-02-21T03:15:21;99590.36;;;7.41;71.03
33286;BME280;19656;50.096;20.014;2024-02-21T03:20:24;99584.92;;;7.40;71.28
33286;BME280;19656;50.096;20.014;2024-02-21T03:25:27;99576.59;;;7.42;71.38
33286;BME280;19656;50.096;20.014;2024-02-21T03:30:31;99581.89;;;7.45;71.37
33286;BME280;19656;50.096;20.014;2024-02-21T03:35:34;99580.23;;;7.47;71.38
33286;BME280;19656;50.096;20.014;2024-02-21T03:40:37;99576.73;;;7.55;71.27
33286;BME280;19656;50.096;20.014;2024-02-21T03:45:40;99575.38;;;7.58;71.12
33286;BME280;19656;50.096;20.014;2024-02-21T03:50:43;99574.83;;;7.54;71.21
33286;BME280;19656;50.096;20.014;2024-02-21T03:55:47;99569.52;;;7.50;71.14
33286;BME280;19656;50.096;20.014;2024-02-21T04:00:50;99577.16;;;7.44;71.30
33286;BME280;19656;50.096;20.014;2024-02-21T04:05:55;99571.67;;;7.41;71.41
33286;BME280;19656;50.096;20.014;2024-02-21T04:10:58;99568.79;;;7.33;71.55
33286;BME280;19656;50.096;20.014;2024-02-21T04:16:01;99556.64;;;7.28;71.71
33286;BME280;19656;50.096;20.014;2024-02-21T04:21:06;99563.64;;;7.29;71.68
33286;BME280;19656;50.096;20.014;2024-02-21T04:26:09;99556.64;;;7.32;71.76
33286;BME280;19656;50.096;20.014;2024-02-21T04:31:12;99553.30;;;7.32;71.72
33286;BME280;19656;50.096;20.014;2024-02-21T04:36:16;99547.83;;;7.32;71.73
33286;BME280;19656;50.096;20.014;2024-02-21T04:41:19;99549.30;;;7.35;72.08
33286;BME280;19656;50.096;20.014;2024-02-21T04:46:22;99542.46;;;7.38;71.63
33286;BME280;19656;50.096;20.014;2024-02-21T04:51:26;99552.59;;;7.32;71.62
33286;BME280;19656;50.096;20.014;2024-02-21T04:56:29;99550.47;;;7.37;72.02
33286;BME280;19656;50.096;20.014;2024-02-21T05:01:32;99558.77;;;7.37;71.41
33286;BME280;19656;50.096;20.014;2024-02-21T05:06:39;99564.61;;;7.36;71.51
33286;BME280;19656;50.096;20.014;2024-02-21T05:11:43;99565.54;;;7.44;71.40
33286;BME280;19656;50.096;20.014;2024-02-21T05:16:46;99563.46;;;7.47;71.28
33286;BME280;19656;50.096;20.014;2024-02-21T05:21:49;99557.09;;;7.47;71.18
33286;BME280;19656;50.096;20.014;2024-02-21T05:26:53;99549.30;;;7.44;70.98
33286;BME280;19656;50.096;20.014;2024-02-21T05:31:57;99553.64;;;7.41;71.06
33286;BME280;19656;50.096;20.014;2024-02-21T05:37:01;99556.40;;;7.39;71.10
33286;BME280;19656;50.096;20.014;2024-02-21T05:42:04;99560.88;;;7.37;71.12
33286;BME280;19656;50.096;20.014;2024-02-21T05:47:07;99562.66;;;7.41;71.22
33286;BME280;19656;50.096;20.014;2024-02-21T05:52:13;99560.02;;;7.50;71.22
33286;BME280;19656;50.096;20.014;2024-02-21T05:57:19;99550.88;;;7.52;71.20
33286;BME280;19656;50.096;20.014;2024-02-21T06:02:22;99550.00;;;7.61;71.93
33286;BME280;19656;50.096;20.014;2024-02-21T06:07:25;99552.90;;;7.68;71.61
33286;BME280;19656;50.096;20.014;2024-02-21T06:12:29;99546.89;;;7.72;71.49
33286;BME280;19656;50.096;20.014;2024-02-21T06:17:32;99546.98;;;7.66;71.42
33286;BME280;19656;50.096;20.014;2024-02-21T06:22:35;99542.14;;;7.64;71.69
33286;BME280;19656;50.096;20.014;2024-02-21T06:27:39;99546.52;;;7.72;71.47
33286;BME280;19656;50.096;20.014;2024-02-21T06:32:42;99541.23;;;7.76;71.31
33286;BME280;19656;50.096;20.014;2024-02-21T06:37:45;99528.60;;;7.74;71.42
33286;BME280;19656;50.096;20.014;2024-02-21T06:42:53;99538.14;;;7.70;71.54
33286;BME280;19656;50.096;20.014;2024-02-21T06:47:56;99536.65;;;7.72;71.44
33286;BME280;19656;50.096;20.014;2024-02-21T06:53:00;99543.67;;;7.77;71.42
33286;BME280;19656;50.096;20.014;2024-02-21T06:58:04;99539.19;;;7.83;71.08
33286;BME280;19656;50.096;20.014;2024-02-21T07:03:07;99539.64;;;7.85;70.88
33286;BME280;19656;50.096;20.014;2024-02-21T07:08:10;99526.27;;;7.96;71.07
33286;BME280;19656;50.096;20.014;2024-02-21T07:13:13;99529.17;;;8.10;70.75
33286;BME280;19656;50.096;20.014;2024-02-21T07:18:18;99531.96;;;8.15;69.98
33286;BME280;19656;50.096;20.014;2024-02-21T07:23:23;99527.94;;;8.22;69.70
33286;BME280;19656;50.096;20.014;2024-02-21T07:28:29;99524.40;;;8.26;69.30
33286;BME280;19656;50.096;20.014;2024-02-21T07:33:32;99521.17;;;8.23;69.07
33286;BME280;19656;50.096;20.014;2024-02-21T07:38:35;99520.48;;;8.23;68.93
33286;BME280;19656;50.096;20.014;2024-02-21T07:43:39;99516.46;;;8.21;68.29
33286;BME280;19656;50.096;20.014;2024-02-21T07:48:42;99511.55;;;8.17;68.20
33286;BME280;19656;50.096;20.014;2024-02-21T07:53:46;99504.61;;;8.22;68.44
33286;BME280;19656;50.096;20.014;2024-02-21T07:58:50;99499.81;;;8.39;68.37
33286;BME280;19656;50.096;20.014;2024-02-21T08:03:54;99494.33;;;8.54;67.81
33286;BME280;19656;50.096;20.014;2024-02-21T08:08:57;99488.38;;;8.68;67.50
33286;BME280;19656;50.096;20.014;2024-02-21T08:14:00;99490.36;;;8.79;67.18
33286;BME280;19656;50.096;20.014;2024-02-21T08:19:03;99489.84;;;8.86;66.08
33286;BME280;19656;50.096;20.014;2024-02-21T08:24:07;99487.14;;;8.90;65.86
33286;BME280;19656;50.096;20.014;2024-02-21T08:29:11;99481.66;;;8.97;65.97
33286;BME280;19656;50.096;20.014;2024-02-21T08:34:15;99474.60;;;9.05;64.88
33286;BME280;19656;50.096;20.014;2024-02-21T08:39:18;99475.23;;;9.06;64.85
33286;BME280;19656;50.096;20.014;2024-02-21T08:44:25;99474.38;;;9.12;64.36
33286;BME280;19656;50.096;20.014;2024-02-21T08:49:31;99471.34;;;9.10;63.71
33286;BME280;19656;50.096;20.014;2024-02-21T08:54:37;99463.52;;;9.03;63.93
33286;BME280;19656;50.096;20.014;2024-02-21T08:59:40;99457.42;;;9.05;63.73
33286;BME280;19656;50.096;20.014;2024-02-21T09:04:43;99452.90;;;9.14;63.63
33286;BME280;19656;50.096;20.014;2024-02-21T09:09:47;99449.00;;;9.25;63.60
33286;BME280;19656;50.096;20.014;2024-02-21T09:14:50;99442.52;;;9.44;63.47
33286;BME280;19656;50.096;20.014;2024-02-21T09:19:53;99439.36;;;9.54;62.93
33286;BME280;19656;50.096;20.014;2024-02-21T09:24:59;99444.90;;;9.53;62.38
33286;BME280;19656;50.096;20.014;2024-02-21T09:30:02;99445.17;;;9.55;62.43
33286;BME280;19656;50.096;20.014;2024-02-21T09:35:08;99449.43;;;9.61;62.09
33286;BME280;19656;50.096;20.014;2024-02-21T09:40:15;99448.42;;;9.64;61.41
33286;BME280;19656;50.096;20.014;2024-02-21T09:45:23;99448.81;;;9.70;61.32
33286;BME280;19656;50.096;20.014;2024-02-21T09:50:27;99452.15;;;9.74;61.00
33286;BME280;19656;50.096;20.014;2024-02-21T09:55:33;99452.30;;;9.75;60.56
33286;BME280;19656;50.096;20.014;2024-02-21T10:00:38;99448.64;;;9.77;60.33
33286;BME280;19656;50.096;20.014;2024-02-21T10:05:47;99439.35;;;9.85;60.75
33286;BME280;19656;50.096;20.014;2024-02-21T10:10:51;99435.73;;;10.09;60.90
33286;BME280;19656;50.096;20.014;2024-02-21T10:16:09;99427.73;;;10.27;60.52
33286;BME280;19656;50.096;20.014;2024-02-21T10:21:13;99423.49;;;10.30;59.38
33286;BME280;19656;50.096;20.014;2024-02-21T10:26:18;99422.73;;;10.28;58.75
33286;BME280;19656;50.096;20.014;2024-02-21T10:31:28;99413.59;;;10.42;59.13
33286;BME280;19656;50.096;20.014;2024-02-21T10:36:32;99406.66;;;10.65;58.07
33286;BME280;19656;50.096;20.014;2024-02-21T10:41:36;99397.73;;;10.78;58.00
33286;BME280;19656;50.096;20.014;2024-02-21T10:46:42;99391.22;;;10.84;56.97
33286;BME280;19656;50.096;20.014;2024-02-21T10:51:46;99378.34;;;10.91;56.72
33286;BME280;19656;50.096;20.014;2024-02-21T10:56:51;99374.27;;;11.12;56.68
33286;BME280;19656;50.096;20.014;2024-02-21T11:01:54;99373.09;;;11.35;55.80
33286;BME280;19656;50.096;20.014;2024-02-21T11:07:01;99363.50;;;11.41;54.99
33286;BME280;19656;50.096;20.014;2024-02-21T11:12:11;99347.98;;;11.48;54.82
33286;BME280;19656;50.096;20.014;2024-02-21T11:17:22;99344.30;;;11.56;54.90
33286;BME280;19656;50.096;20.014;2024-02-21T11:22:30;99347.08;;;11.51;54.76
33286;BME280;19656;50.096;20.014;2024-02-21T11:27:47;99339.92;;;11.40;55.13
33286;BME280;19656;50.096;20.014;2024-02-21T11:32:50;99330.86;;;11.40;55.38
33286;BME280;19656;50.096;20.014;2024-02-21T11:38:12;99332.44;;;11.40;54.66
33286;BME280;19656;50.096;20.014;2024-02-21T11:43:19;99322.48;;;11.38;54.74
33286;BME280;19656;50.096;20.014;2024-02-21T11:48:23;99314.37;;;11.34;55.04
33286;BME280;19656;50.096;20.014;2024-02-21T11:53:27;99305.09;;;11.29;55.45
33286;BME280;19656;50.096;20.014;2024-02-21T11:58:37;99299.52;;;11.21;55.44
33286;BME280;19656;50.096;20.014;2024-02-21T12:03:44;99293.34;;;11.08;55.86
33286;BME280;19656;50.096;20.014;2024-02-21T12:08:57;99295.80;;;10.94;56.10
33286;BME280;19656;50.096;20.014;2024-02-21T12:14:02;99290.52;;;10.94;56.61
33286;BME280;19656;50.096;20.014;2024-02-21T12:19:06;99291.13;;;10.95;56.48
33286;BME280;19656;50.096;20.014;2024-02-21T12:24:20;99280.28;;;11.01;56.13
33286;BME280;19656;50.096;20.014;2024-02-21T12:29:24;99277.48;;;11.12;56.10
33286;BME280;19656;50.096;20.014;2024-02-21T12:34:28;99272.80;;;11.22;55.78
33286;BME280;19656;50.096;20.014;2024-02-21T12:39:51;99269.80;;;11.30;55.55
33286;BME280;19656;50.096;20.014;2024-02-21T12:44:54;99271.14;;;11.35;55.18
33286;BME280;19656;50.096;20.014;2024-02-21T12:49:57;99267.51;;;11.36;54.94
33286;BME280;19656;50.096;20.014;2024-02-21T12:55:01;99261.61;;;11.36;55.05
33286;BME280;19656;50.096;20.014;2024-02-21T13:00:06;99254.45;;;11.38;54.77
33286;BME280;19656;50.096;20.014;2024-02-21T13:05:12;99251.67;;;11.39;54.51
33286;BME280;19656;50.096;20.014;2024-02-21T13:10:15;99246.80;;;11.38;53.99
33286;BME280;19656;50.096;20.014;2024-02-21T13:15:19;99237.18;;;11.27;53.88
33286;BME280;19656;50.096;20.014;2024-02-21T13:20:23;99237.46;;;11.19;54.33
33286;BME280;19656;50.096;20.014;2024-02-21T13:25:26;99239.68;;;11.09;54.52
33286;BME280;19656;50.096;20.014;2024-02-21T13:30:30;99235.13;;;11.05;55.07
33286;BME280;19656;50.096;20.014;2024-02-21T13:35:33;99233.12;;;11.03;54.85
33286;BME280;19656;50.096;20.014;2024-02-21T13:40:36;99231.70;;;10.97;55.10
33286;BME280;19656;50.096;20.014;2024-02-21T13:45:39;99229.73;;;10.92;55.40
33286;BME280;19656;50.096;20.014;2024-02-21T13:50:45;99220.89;;;10.82;56.20
33286;BME280;19656;50.096;20.014;2024-02-21T13:55:49;99217.98;;;10.78;57.10
33286;BME280;19656;50.096;20.014;2024-02-21T14:00:53;99218.65;;;10.66;57.53
33286;BME280;19656;50.096;20.014;2024-02-21T14:05:57;99219.93;;;10.59;57.71
33286;BME280;19656;50.096;20.014;2024-02-21T14:11:00;99211.45;;;10.50;57.39
33286;BME280;19656;50.096;20.014;2024-02-21T14:16:09;99214.41;;;10.45;57.69
33286;BME280;19656;50.096;20.014;2024-02-21T14:21:13;99207.20;;;10.47;57.83
33286;BME280;19656;50.096;20.014;2024-02-21T14:26:17;99204.16;;;10.53;58.85
33286;BME280;19656;50.096;20.014;2024-02-21T14:31:20;99208.42;;;10.50;58.17
33286;BME280;19656;50.096;20.014;2024-02-21T14:36:23;99208.42;;;10.35;58.29
33286;BME280;19656;50.096;20.014;2024-02-21T14:41:27;99199.95;;;10.29;58.82
33286;BME280;19656;50.096;20.014;2024-02-21T14:46:32;99194.10;;;10.25;59.43
33286;BME280;19656;50.096;20.014;2024-02-21T14:51:36;99187.83;;;10.20;60.03
33286;BME280;19656;50.096;20.014;2024-02-21T14:56:39;99178.77;;;10.20;60.78
33286;BME280;19656;50.096;20.014;2024-02-21T15:01:42;99173.71;;;10.19;61.44
33286;BME280;19656;50.096;20.014;2024-02-21T15:06:45;99167.33;;;10.15;62.07
33286;BME280;19656;50.096;20.014;2024-02-21T15:11:49;99166.50;;;10.08;62.90
33286;BME280;19656;50.096;20.014;2024-02-21T15:16:52;99162.14;;;10.04;63.22
33286;BME280;19656;50.096;20.014;2024-02-21T15:21:55;99157.02;;;10.01;63.71
33286;BME280;19656;50.096;20.014;2024-02-21T15:26:58;99155.60;;;9.98;64.27
33286;BME280;19656;50.096;20.014;2024-02-21T15:32:02;99151.21;;;9.97;64.41
33286;BME280;19656;50.096;20.014;2024-02-21T15:37:06;99150.27;;;9.98;64.59
33286;BME280;19656;50.096;20.014;2024-02-21T15:42:09;99130.55;;;9.96;64.77
33286;BME280;19656;50.096;20.014;2024-02-21T15:47:13;99122.31;;;10.00;65.45
33286;BME280;19656;50.096;20.014;2024-02-21T15:52:16;99124.20;;;9.98;65.14
33286;BME280;19656;50.096;20.014;2024-02-21T15:57:19;99124.38;;;10.10;65.46
33286;BME280;19656;50.096;20.014;2024-02-21T16:02:22;99125.50;;;10.15;64.98
33286;BME280;19656;50.096;20.014;2024-02-21T16:07:27;99130.02;;;10.11;65.01
33286;BME280;19656;50.096;20.014;2024-02-21T16:12:31;99130.55;;;10.14;64.88
33286;BME280;19656;50.096;20.014;2024-02-21T16:17:36;99132.89;;;10.10;64.69
33286;BME280;19656;50.096;20.014;2024-02-21T16:22:39;99125.40;;;10.11;64.49
33286;BME280;19656;50.096;20.014;2024-02-21T16:27:43;99121.26;;;10.06;64.31
33286;BME280;19656;50.096;20.014;2024-02-21T16:32:46;99117.02;;;10.00;64.07
33286;BME280;19656;50.096;20.014;2024-02-21T16:37:49;99109.86;;;10.07;65.60
33286;BME280;19656;50.096;20.014;2024-02-21T16:42:53;99098.10;;;10.14;63.84
33286;BME280;19656;50.096;20.014;2024-02-21T16:47:56;99089.06;;;10.11;63.20
33286;BME280;19656;50.096;20.014;2024-02-21T16:52:59;99089.46;;;10.05;63.08
33286;BME280;19656;50.096;20.014;2024-02-21T16:58:03;99091.38;;;9.99;62.95
33286;BME280;19656;50.096;20.014;2024-02-21T17:03:08;99093.44;;;9.97;63.16
33286;BME280;19656;50.096;20.014;2024-02-21T17:08:12;99088.52;;;9.99;63.47
33286;BME280;19656;50.096;20.014;2024-02-21T17:13:16;99079.55;;;9.89;63.16
33286;BME280;19656;50.096;20.014;2024-02-21T17:18:19;99080.81;;;9.80;63.14
33286;BME280;19656;50.096;20.014;2024-02-21T17:23:22;99084.17;;;9.77;63.24
33286;BME280;19656;50.096;20.014;2024-02-21T17:28:25;99078.02;;;9.73;63.24
33286;BME280;19656;50.096;20.014;2024-02-21T17:33:29;99072.97;;;9.65;63.34
33286;BME280;19656;50.096;20.014;2024-02-21T17:38:32;99060.94;;;9.74;64.70
33286;BME280;19656;50.096;20.014;2024-02-21T17:43:35;99053.33;;;9.80;63.47
33286;BME280;19656;50.096;20.014;2024-02-21T17:48:39;99046.95;;;9.68;63.21
33286;BME280;19656;50.096;20.014;2024-02-21T17:53:42;99044.23;;;9.57;63.17
33286;BME280;19656;50.096;20.014;2024-02-21T17:58:46;99038.87;;;9.48;63.31
33286;BME280;19656;50.096;20.014;2024-02-21T18:03:51;99038.91;;;9.44;63.37
33286;BME280;19656;50.096;20.014;2024-02-21T18:08:54;99033.30;;;9.47;63.74
33286;BME280;19656;50.096;20.014;2024-02-21T18:14:00;99027.21;;;9.48;63.62
33286;BME280;19656;50.096;20.014;2024-02-21T18:19:09;99029.64;;;9.40;63.16
33286;BME280;19656;50.096;20.014;2024-02-21T18:24:12;99024.32;;;9.31;63.38
33286;BME280;19656;50.096;20.014;2024-02-21T18:29:16;99021.03;;;9.29;64.09
33286;BME280;19656;50.096;20.014;2024-02-21T18:34:21;99024.00;;;9.30;63.27
33286;BME280;19656;50.096;20.014;2024-02-21T18:39:24;99023.81;;;9.24;63.31
33286;BME280;19656;50.096;20.014;2024-02-21T18:44:27;99017.42;;;9.21;63.25
33286;BME280;19656;50.096;20.014;2024-02-21T18:49:30;99009.72;;;9.13;63.25
33286;BME280;19656;50.096;20.014;2024-02-21T18:54:38;99013.39;;;9.05;63.31
33286;BME280;19656;50.096;20.014;2024-02-21T18:59:43;99008.12;;;9.01;63.24
33286;BME280;19656;50.096;20.014;2024-02-21T19:04:46;99001.91;;;8.94;63.26
33286;BME280;19656;50.096;20.014;2024-02-21T19:09:50;98992.92;;;9.07;64.25
33286;BME280;19656;50.096;20.014;2024-02-21T19:14:53;98978.06;;;9.19;63.10
33286;BME280;19656;50.096;20.014;2024-02-21T19:19:57;98970.77;;;9.07;62.72
33286;BME280;19656;50.096;20.014;2024-02-21T19:25:01;98965.39;;;8.99;62.76
33286;BME280;19656;50.096;20.014;2024-02-21T19:30:10;98961.02;;;8.89;62.86
33286;BME280;19656;50.096;20.014;2024-02-21T19:35:16;98958.27;;;8.93;64.16
33286;BME280;19656;50.096;20.014;2024-02-21T19:40:20;98957.17;;;8.88;63.05
33286;BME280;19656;50.096;20.014;2024-02-21T19:45:23;98948.91;;;8.71;63.25
33286;BME280;19656;50.096;20.014;2024-02-21T19:50:28;98944.14;;;8.62;63.43
33286;BME280;19656;50.096;20.014;2024-02-21T19:55:36;98939.36;;;8.52;63.57
33286;BME280;19656;50.096;20.014;2024-02-21T20:00:39;98940.81;;;8.42;63.76
33286;BME280;19656;50.096;20.014;2024-02-21T20:05:43;98934.44;;;8.42;64.02
33286;BME280;19656;50.096;20.014;2024-02-21T20:10:47;98936.57;;;8.39;63.88
33286;BME280;19656;50.096;20.014;2024-02-21T20:15:52;98928.86;;;8.34;64.08
33286;BME280;19656;50.096;20.014;2024-02-21T20:20:55;98928.02;;;8.29;64.08
33286;BME280;19656;50.096;20.014;2024-02-21T20:25:59;98927.81;;;8.30;64.12
33286;BME280;19656;50.096;20.014;2024-02-21T20:31:02;98936.48;;;8.37;64.13
33286;BME280;19656;50.096;20.014;2024-02-21T20:36:06;98936.52;;;8.43;63.91
33286;BME280;19656;50.096;20.014;2024-02-21T20:41:17;98930.85;;;8.46;63.73
33286;BME280;19656;50.096;20.014;2024-02-21T20:46:20;98919.81;;;8.38;63.76
33286;BME280;19656;50.096;20.014;2024-02-21T20:51:23;98909.32;;;8.26;63.84
33286;BME280;19656;50.096;20.014;2024-02-21T20:56:27;98906.52;;;8.16;64.25
33286;BME280;19656;50.096;20.014;2024-02-21T21:01:30;98893.52;;;8.14;64.47
33286;BME280;19656;50.096;20.014;2024-02-21T21:06:38;98885.90;;;8.15;64.56
33286;BME280;19656;50.096;20.014;2024-02-21T21:11:41;98884.84;;;8.14;64.51
33286;BME280;19656;50.096;20.014;2024-02-21T21:16:48;98890.52;;;8.08;64.65
33286;BME280;19656;50.096;20.014;2024-02-21T21:21:51;98893.67;;;7.98;64.87
33286;BME280;19656;50.096;20.014;2024-02-21T21:26:56;98885.56;;;7.88;65.14
33286;BME280;19656;50.096;20.014;2024-02-21T21:32:00;98883.30;;;7.77;65.57
33286;BME280;19656;50.096;20.014;2024-02-21T21:37:03;98882.06;;;7.68;65.88
33286;BME280;19656;50.096;20.014;2024-02-21T21:42:07;98873.59;;;7.61;66.28
33286;BME280;19656;50.096;20.014;2024-02-21T21:47:13;98865.59;;;7.55;66.31
33286;BME280;19656;50.096;20.014;2024-02-21T21:52:16;98857.55;;;7.47;66.53
33286;BME280;19656;50.096;20.014;2024-02-21T21:57:22;98852.09;;;7.43;66.74
33286;BME280;19656;50.096;20.014;2024-02-21T22:02:27;98845.02;;;7.43;66.83
33286;BME280;19656;50.096;20.014;2024-02-21T22:07:30;98847.25;;;7.45;66.85
33286;BME280;19656;50.096;20.014;2024-02-21T22:12:33;98846.41;;;7.44;66.81
33286;BME280;19656;50.096;20.014;2024-02-21T22:17:37;98842.38;;;7.37;66.84
33286;BME280;19656;50.096;20.014;2024-02-21T22:22:40;98832.04;;;7.25;67.02
33286;BME280;19656;50.096;20.014;2024-02-21T22:27:44;98828.73;;;7.14;67.04
33286;BME280;19656;50.096;20.014;2024-02-21T22:32:47;98826.05;;;7.08;67.08
33286;BME280;19656;50.096;20.014;2024-02-21T22:37:50;98821.09;;;6.94;67.05
33286;BME280;19656;50.096;20.014;2024-02-21T22:42:53;98812.64;;;6.83;67.39
33286;BME280;19656;50.096;20.014;2024-02-21T22:47:57;98805.33;;;6.74;67.60
33286;BME280;19656;50.096;20.014;2024-02-21T22:53:00;98792.15;;;6.67;67.79
33286;BME280;19656;50.096;20.014;2024-02-21T22:58:04;98778.33;;;6.54;67.77
33286;BME280;19656;50.096;20.014;2024-02-21T23:03:07;98770.42;;;6.47;68.02
33286;BME280;19656;50.096;20.014;2024-02-21T23:08:13;98770.24;;;6.36;68.36
33286;BME280;19656;50.096;20.014;2024-02-21T23:13:17;98765.75;;;6.27;68.77
33286;BME280;19656;50.096;20.014;2024-02-21T23:18:20;98759.56;;;6.24;69.11
33286;BME280;19656;50.096;20.014;2024-02-21T23:23:23;98752.64;;;6.25;69.08
33286;BME280;19656;50.096;20.014;2024-02-21T23:28:26;98747.06;;;6.27;68.98
33286;BME280;19656;50.096;20.014;2024-02-21T23:33:29;98741.07;;;6.27;69.02
33286;BME280;19656;50.096;20.014;2024-02-21T23:38:37;98733.48;;;6.31;69.03
33286;BME280;19656;50.096;20.014;2024-02-21T23:43:42;98731.85;;;6.28;68.96
33286;BME280;19656;50.096;20.014;2024-02-21T23:48:45;98721.73;;;6.27;68.85
33286;BME280;19656;50.096;20.014;2024-02-21T23:53:49;98711.80;;;6.21;68.81
33286;BME280;19656;50.096;20.014;2024-02-21T23:58:52;98706.52;;;6.14;68.97
